CheckWX is a tool to help pilots better visualize weather data.  It is not intended as a substitute for an official pre-flight weather briefing.

12:22:53 UTC

YBMA TAF
Mount Isa Airport
Mount Isa, Australia
TAF YBMA 221031Z 2212/2224 07012KT CAVOK

Mar-22@
12:00 UTC

Mar-22 @ 12:00 UTC

Mar-23@
00:00 UTC

Mar-23 @ 00:00 UTC

TAF YBMA 221031Z 2212/2224 07012KT CAVOK
Wind
  • 070° at 12 KTS
Conditions
No significant weather
Cloud Levels
  • No significant clouds